Annandale, Minnesota
Current Conditions -  °F | °C
As of 3:15 PM on Thursday 20 Nov 2014 (Local Time) from KMGG Reporting Station
Clear Clear  
Wind Chill:   Ceiling: Unl
Heat Index: 17°   Visibility: 10mi
Dew Point:   Wind: 9mph
Humidity: 62%   Direction: 270°W
Pressure: 30.17"   Gusts: NA
Location:  45.26°N, 94.12°W
Report Text: KMGG 202115Z AUTO 27008KT 10SM CLR M08/M15 A3017 RMK AO2 T10851147
Loading
Personal Weather Stations






























Interactive Weather Map New forecast layout! Learn more

10-Day Weather Forecast

Advertisements
Track Severe Weather on mobile